Accueil
METAR-TAF:

METAR-TAF

Aéroports :

Oberpfaffenhofen, Allemagne

latitude: 48-05N, longitude: 011-17E, altitude: 600 m

Observation

Le bulletin a été fait il y a 12 heures et 1 minutes, à 13:20 UTC
Vent 10 kt de est
Température 19°C
Humidité 60%
Pression 1018 hPa
Visibilité 10 km ou plus
Nuages épars à une hauteur de 4000 ft

METAR: EDMO 201320Z 09010KT 9999 SCT040 19/11 Q1018

Heure: 03:21 (01:21 UTC)


TAF: absent

Observations et prévisions météorologiques de plus de 4000 aéroports (messages METAR et TAF).

Les stations disponibles sont représentées par des disques jaunes et rouges sur la carte.

Passer la souris dessus pour voir le nom de la station.

Cliquer dessus pour voir les observations et prévisions météorologiques.

Pour changer de carte: cliquez sur les boutons verts avec une croix noire pour zoomer, sur le bouton vert avec un tiret pour effectuer un zoom arrière, ou sur les flèches vertes pour les cartes adjacentes.


METAR-TAF: